CheckWX is a tool to help pilots better visualize weather data.  It is not intended as a substitute for an official pre-flight weather briefing.

01:24:53 UTC

SBSJ TAF
Professor Urbano Ernesto Stumpf Airport
São José Dos Campos, Brazil
TAF SBSJ 232100Z 2400/2424 10005KT 8000 SCT025 TN20/2408Z TX34/2418Z BECMG 2402/2405 03005KT BECMG 2407/2409 01005KT 4000 BR SCT010 BECMG 2412/2413 30010KT 7000 NSW SCT035 BECMG 2417/2418 18013KT SCT030 FEW040TCU BECMG 2421/2423 10005KT FEW030 RMK PGB

Feb-24@
00:00 UTC

Feb-24 @ 00:00 UTC

Feb-24@
02:00 UTC

Feb-24 @ 02:00 UTC

TAF SBSJ 232100Z 2400/2424 10005KT 8000 SCT025 TN20/2408Z TX34/2418Z
Wind
  • 100° at 5 KTS
Cloud Levels
  • Scattered at 2,500' AGL

Feb-24@
02:00 UTC

Feb-24 @ 02:00 UTC

Feb-24@
07:00 UTC

Feb-24 @ 07:00 UTC

BECMG 2402/2405 03005KT

Becoming

Becoming Conditions expected by Sun, Feb 24, 2019 @ 05:00 UTC

Wind
  • 030° at 5 KTS
Cloud Levels
  • Scattered at 2,500' AGL

Feb-24@
07:00 UTC

Feb-24 @ 07:00 UTC

Feb-24@
12:00 UTC

Feb-24 @ 12:00 UTC

BECMG 2407/2409 01005KT 4000 BR SCT010

Becoming

Becoming Conditions expected by Sun, Feb 24, 2019 @ 09:00 UTC

Wind
  • 010° at 5 KTS
Conditions
Mist
Cloud Levels
  • Scattered at 1,000' AGL

Feb-24@
12:00 UTC

Feb-24 @ 12:00 UTC

Feb-24@
17:00 UTC

Feb-24 @ 17:00 UTC

BECMG 2412/2413 30010KT 7000 NSW SCT035

Becoming

Becoming Conditions expected by Sun, Feb 24, 2019 @ 13:00 UTC

Wind
  • 300° at 10 KTS
Conditions
No significant weather
Cloud Levels
  • Scattered at 3,500' AGL

Feb-24@
17:00 UTC

Feb-24 @ 17:00 UTC

Feb-24@
21:00 UTC

Feb-24 @ 21:00 UTC

BECMG 2417/2418 18013KT SCT030 FEW040TCU

Becoming

Becoming Conditions expected by Sun, Feb 24, 2019 @ 18:00 UTC

Wind
  • 180° at 13 KTS
Conditions
No significant weather
Cloud Levels
  • Scattered at 3,000' AGL
  • Few at 4,000' AGL

Feb-24@
21:00 UTC

Feb-24 @ 21:00 UTC

Feb-25@
00:00 UTC

Feb-25 @ 00:00 UTC

BECMG 2421/2423 10005KT FEW030 RMK PGB

Becoming

Becoming Conditions expected by Sun, Feb 24, 2019 @ 23:00 UTC

Wind
  • 100° at 5 KTS
Conditions
No significant weather
Cloud Levels
  • Few at 3,000' AGL